Time;durP1;ratioP1;P1;durP2;ratioP2;P2;SDS_P1;SDS_P2;PMS_P1;PMS_P2;Temp;Humidity;BMP_temperature;BMP_pressure;BME280_temperature;BME280_humidity;BME280_pressure;Samples;Min_cycle;Max_cycle;Signal;HPM_P1;HPM_P2
2021/10/26 00:02:24;;;;;;;13.93;9.82;;;11.60;99.90;;;;;;5012358;28;20032;-89
2021/10/26 00:04:49;;;;;;;19.85;10.55;;;11.60;99.90;;;;;;5012782;28;20037;-90
2021/10/26 00:07:15;;;;;;;16.75;10.18;;;11.60;99.90;;;;;;5029024;28;20478;-90
2021/10/26 00:09:41;;;;;;;15.93;9.88;;;11.60;99.90;;;;;;5028095;28;20063;-93
2021/10/26 00:12:09;;;;;;;16.25;10.10;;;11.60;99.90;;;;;;5015245;28;20029;-92
2021/10/26 00:14:37;;;;;;;16.15;11.43;;;11.60;99.90;;;;;;5032128;28;20029;-92
2021/10/26 00:17:03;;;;;;;15.85;10.30;;;11.60;99.90;;;;;;5031892;28;20030;-91
2021/10/26 00:19:29;;;;;;;17.77;10.40;;;11.60;99.90;;;;;;5031930;28;20026;-89
2021/10/26 00:21:54;;;;;;;16.23;11.15;;;11.60;99.90;;;;;;5031591;28;20033;-92
2021/10/26 00:24:20;;;;;;;17.52;11.90;;;11.60;99.90;;;;;;5031536;28;20046;-89
2021/10/26 00:26:46;;;;;;;15.73;11.52;;;11.60;99.90;;;;;;5031512;28;20390;-91
2021/10/26 00:29:11;;;;;;;15.63;10.80;;;11.60;99.90;;;;;;5031878;28;20108;-91
2021/10/26 00:31:37;;;;;;;13.32;10.55;;;11.60;99.90;;;;;;5031385;28;20095;-91
2021/10/26 00:34:04;;;;;;;18.50;12.43;;;11.60;99.90;;;;;;5031710;28;20479;-94
2021/10/26 00:36:30;;;;;;;16.27;11.57;;;11.60;99.90;;;;;;5048018;28;20033;-94
2021/10/26 00:38:56;;;;;;;18.45;12.65;;;11.60;99.90;;;;;;5047868;28;20033;-91
2021/10/26 00:41:22;;;;;;;15.35;11.13;;;11.60;99.90;;;;;;5031292;28;20063;-92
2021/10/26 00:43:49;;;;;;;17.85;10.77;;;11.50;99.90;;;;;;5031222;28;20105;-90
2021/10/26 00:46:29;;;;;;;15.88;11.10;;;11.50;99.90;;;;;;5031421;28;20474;-92
2021/10/26 00:48:56;;;;;;;14.32;10.20;;;11.50;99.90;;;;;;5031148;28;20060;-90
2021/10/26 00:51:22;;;;;;;17.13;10.70;;;11.50;99.90;;;;;;5047639;28;20022;-93
2021/10/26 00:53:48;;;;;;;17.60;11.82;;;11.50;99.90;;;;;;5047834;28;20132;-92
2021/10/26 00:56:14;;;;;;;16.60;11.00;;;11.50;99.90;;;;;;5049171;28;20040;-90
2021/10/26 00:58:42;;;;;;;19.23;11.93;;;11.50;99.90;;;;;;5031107;28;20124;-92
2021/10/26 01:01:08;;;;;;;21.30;12.55;;;11.50;99.90;;;;;;5031031;28;20025;-91
2021/10/26 01:03:33;;;;;;;16.25;10.93;;;11.60;99.90;;;;;;5030970;28;20033;-90
2021/10/26 01:06:02;;;;;;;21.08;11.48;;;11.50;99.90;;;;;;5047371;28;20025;-91
2021/10/26 01:08:29;;;;;;;18.08;11.88;;;11.50;99.90;;;;;;5030929;28;20445;-93
2021/10/26 01:10:58;;;;;;;17.55;12.05;;;11.50;99.90;;;;;;5030911;28;20065;-91
2021/10/26 01:13:24;;;;;;;17.80;11.30;;;11.50;99.90;;;;;;5047148;28;20030;-89
2021/10/26 01:15:54;;;;;;;14.75;11.25;;;11.50;99.90;;;;;;5047323;28;20026;-93
2021/10/26 01:18:27;;;;;;;21.15;11.75;;;11.50;99.90;;;;;;5031958;28;20030;-93
2021/10/26 01:20:55;;;;;;;15.50;11.15;;;11.50;99.90;;;;;;5014462;28;20030;-92
2021/10/26 01:23:24;;;;;;;17.50;12.13;;;11.50;99.90;;;;;;5006559;28;20036;-92
2021/10/26 01:25:51;;;;;;;17.65;11.55;;;11.50;99.90;;;;;;5030541;28;20040;-93
2021/10/26 01:28:17;;;;;;;18.85;12.18;;;11.50;99.90;;;;;;5030533;28;20049;-90
2021/10/26 01:30:43;;;;;;;16.70;11.10;;;11.50;99.90;;;;;;5047009;28;20033;-90
2021/10/26 01:33:29;;;;;;;17.20;11.63;;;11.40;99.90;;;;;;5007118;28;20429;-92
2021/10/26 01:36:07;;;;;;;16.00;11.32;;;11.50;99.90;;;;;;5046998;28;20034;-91
2021/10/26 01:38:33;;;;;;;20.33;13.00;;;11.50;99.90;;;;;;5030435;28;20029;-93
2021/10/26 01:40:58;;;;;;;21.92;12.82;;;11.50;99.90;;;;;;5030385;28;20512;-89
2021/10/26 01:43:24;;;;;;;18.90;13.40;;;11.50;99.90;;;;;;5030393;28;20059;-92
2021/10/26 01:45:51;;;;;;;17.77;12.70;;;11.50;99.90;;;;;;5030562;28;20029;-91
2021/10/26 01:48:32;;;;;;;26.33;14.60;;;11.50;99.90;;;;;;5046632;28;20037;-91
2021/10/26 01:50:58;;;;;;;25.17;14.05;;;11.50;99.90;;;;;;5031353;28;20022;-94
2021/10/26 01:53:26;;;;;;;22.05;14.18;;;11.50;99.90;;;;;;5046551;28;20032;-89
2021/10/26 01:55:53;;;;;;;20.02;13.50;;;11.50;99.90;;;;;;5030062;28;20022;-90
2021/10/26 01:58:19;;;;;;;23.52;15.02;;;11.50;99.90;;;;;;5046688;28;20091;-91
2021/10/26 02:01:08;;;;;;;20.75;13.43;;;11.50;99.90;;;;;;5045880;28;20059;-91
2021/10/26 02:03:33;;;;;;;17.60;11.55;;;11.50;99.90;;;;;;5029946;28;20061;-91
2021/10/26 02:05:59;;;;;;;19.73;11.75;;;11.50;99.90;;;;;;5030125;28;20032;-92
2021/10/26 02:08:25;;;;;;;21.20;14.75;;;11.50;99.90;;;;;;5046370;28;20060;-91
2021/10/26 02:10:51;;;;;;;18.13;12.73;;;11.50;99.90;;;;;;5046184;28;20052;-91
2021/10/26 02:13:16;;;;;;;23.40;13.45;;;11.50;99.90;;;;;;5029855;28;20030;-91
2021/10/26 02:15:42;;;;;;;18.45;12.70;;;11.50;99.90;;;;;;5029917;28;20033;-90
2021/10/26 02:18:08;;;;;;;19.02;12.27;;;11.50;99.90;;;;;;5046339;28;20025;-93
2021/10/26 02:20:34;;;;;;;20.38;13.05;;;11.50;99.90;;;;;;5029411;28;20470;-88
2021/10/26 02:23:02;;;;;;;19.60;13.63;;;11.50;99.90;;;;;;5045552;28;20033;-92
2021/10/26 02:25:28;;;;;;;23.02;14.82;;;11.50;99.90;;;;;;5029320;28;20038;-92
2021/10/26 02:27:54;;;;;;;22.48;14.68;;;11.50;99.90;;;;;;5046105;28;20438;-92
2021/10/26 02:30:22;;;;;;;21.67;14.02;;;11.50;99.90;;;;;;5029560;28;20481;-92
2021/10/26 02:32:48;;;;;;;23.83;12.27;;;11.50;99.90;;;;;;5029457;28;20025;-90
2021/10/26 02:35:14;;;;;;;22.20;13.95;;;11.50;99.90;;;;;;5028389;28;20037;-89
2021/10/26 02:37:39;;;;;;;22.42;13.93;;;11.50;99.90;;;;;;5029368;28;20034;-92
2021/10/26 02:40:07;;;;;;;19.02;12.90;;;11.50;99.90;;;;;;5029372;28;20030;-90
2021/10/26 02:42:33;;;;;;;18.45;12.45;;;11.50;99.90;;;;;;5045787;28;20088;-89
2021/10/26 02:45:19;;;;;;;19.75;13.05;;;11.40;99.90;;;;;;5029062;28;20065;-90
2021/10/26 02:47:46;;;;;;;20.20;14.60;;;11.40;99.90;;;;;;5004913;28;20069;-89
2021/10/26 02:50:12;;;;;;;18.75;13.20;;;11.40;99.90;;;;;;5005026;28;20042;-92
2021/10/26 02:52:39;;;;;;;23.02;14.23;;;11.40;99.90;;;;;;4988708;28;20038;-90
2021/10/26 02:55:06;;;;;;;21.10;12.70;;;11.50;99.90;;;;;;5005001;28;20030;-92
2021/10/26 02:57:33;;;;;;;20.48;12.40;;;11.40;99.90;;;;;;4988780;28;20552;-88
2021/10/26 02:59:58;;;;;;;26.75;14.60;;;11.40;99.90;;;;;;4988484;28;20086;-89
2021/10/26 03:02:25;;;;;;;21.08;14.45;;;11.40;99.90;;;;;;4988618;28;20042;-94
2021/10/26 03:04:50;;;;;;;20.15;13.10;;;11.40;99.90;;;;;;4988420;28;20076;-90
2021/10/26 03:07:17;;;;;;;23.23;14.60;;;11.40;99.90;;;;;;4988525;28;20089;-92
2021/10/26 03:09:46;;;;;;;23.63;14.23;;;11.40;99.90;;;;;;4988525;28;20049;-91
2021/10/26 03:12:11;;;;;;;16.83;10.88;;;11.50;99.90;;;;;;4988517;28;20078;-92
2021/10/26 03:14:37;;;;;;;24.13;15.50;;;11.40;99.90;;;;;;4988358;28;20474;-88
2021/10/26 03:17:03;;;;;;;25.05;15.05;;;11.40;99.90;;;;;;5004731;28;20499;-89
2021/10/26 03:19:29;;;;;;;28.40;17.73;;;11.40;99.90;;;;;;4988315;28;20073;-88
2021/10/26 03:21:55;;;;;;;29.33;17.45;;;11.50;99.90;;;;;;4988381;28;20130;-88
2021/10/26 03:24:21;;;;;;;29.15;17.83;;;11.40;99.90;;;;;;5014315;28;20041;-91
2021/10/26 03:26:46;;;;;;;28.23;17.30;;;11.50;99.90;;;;;;5028644;28;20036;-89
2021/10/26 03:29:12;;;;;;;27.73;16.90;;;11.40;99.90;;;;;;5028443;28;20036;-92
2021/10/26 03:31:38;;;;;;;23.10;16.25;;;11.40;99.90;;;;;;5028638;28;20021;-90
2021/10/26 03:34:22;;;;;;;30.70;17.67;;;11.50;99.90;;;;;;5045346;28;20060;-91
2021/10/26 03:36:51;;;;;;;29.40;17.92;;;11.50;99.90;;;;;;5044991;28;20029;-89
2021/10/26 03:39:17;;;;;;;27.13;18.70;;;11.40;99.90;;;;;;5045022;28;20049;-92
2021/10/26 03:41:42;;;;;;;27.90;17.65;;;11.40;99.90;;;;;;5028375;28;20056;-92
2021/10/26 03:44:08;;;;;;;26.70;17.50;;;11.40;99.90;;;;;;5012065;28;20535;-91
2021/10/26 03:46:35;;;;;;;29.90;18.75;;;11.40;99.90;;;;;;5031204;28;20037;-88
2021/10/26 03:49:04;;;;;;;27.10;18.40;;;11.40;99.90;;;;;;5049244;28;20040;-89
2021/10/26 03:51:32;;;;;;;;;;;11.40;99.90;;;;;;5016701;28;20492;-91
2021/10/26 03:53:58;;;;;;;23.30;15.75;;;11.40;99.90;;;;;;5032444;28;19913;-91
2021/10/26 03:56:24;;;;;;;27.83;17.38;;;11.40;99.90;;;;;;5048947;28;20137;-91
2021/10/26 03:58:50;;;;;;;36.60;20.30;;;11.40;99.90;;;;;;5032664;28;20033;-88
2021/10/26 04:01:20;;;;;;;36.80;23.00;;;11.40;99.90;;;;;;5032138;28;20032;-88
2021/10/26 04:03:46;;;;;;;30.27;20.90;;;11.40;99.90;;;;;;5048674;28;20064;-94
2021/10/26 04:06:20;;;;;;;35.58;21.20;;;11.40;99.90;;;;;;5032310;28;20036;-94
2021/10/26 04:08:54;;;;;;;31.65;19.40;;;11.40;99.90;;;;;;5049028;28;20033;-89
2021/10/26 04:11:24;;;;;;;28.52;18.90;;;11.40;99.90;;;;;;5048742;28;20089;-90
2021/10/26 04:13:54;;;;;;;33.72;20.90;;;11.40;99.90;;;;;;5032727;28;20473;-89
2021/10/26 04:16:21;;;;;;;27.85;19.58;;;11.40;99.90;;;;;;5031823;28;20021;-93
2021/10/26 04:18:48;;;;;;;31.30;20.60;;;11.40;99.90;;;;;;5032044;28;20132;-88
2021/10/26 04:21:14;;;;;;;36.45;24.30;;;11.40;99.90;;;;;;5032039;28;20030;-87
2021/10/26 04:23:48;;;;;;;43.03;25.98;;;11.40;99.90;;;;;;5047651;28;20119;-89
2021/10/26 04:26:18;;;;;;;37.92;23.17;;;11.40;99.90;;;;;;5048563;28;20033;-92
2021/10/26 04:28:44;;;;;;;34.08;21.52;;;11.40;99.90;;;;;;5048807;28;20116;-93
2021/10/26 04:31:11;;;;;;;31.83;19.02;;;11.40;99.90;;;;;;5032005;28;20033;-91
2021/10/26 04:33:36;;;;;;;31.17;19.98;;;11.30;99.90;;;;;;5048506;28;20052;-90
2021/10/26 04:36:03;;;;;;;35.78;22.38;;;11.40;99.90;;;;;;5032169;28;20041;-92
2021/10/26 04:38:29;;;;;;;35.65;22.25;;;11.30;99.90;;;;;;5032014;28;20057;-94
2021/10/26 04:40:57;;;;;;;42.13;24.50;;;11.30;99.90;;;;;;5048272;28;20037;-87
2021/10/26 04:43:27;;;;;;;36.10;23.23;;;11.30;99.90;;;;;;5031839;28;20038;-90
2021/10/26 04:45:53;;;;;;;37.53;24.52;;;11.30;99.90;;;;;;5031621;28;20033;-91
2021/10/26 04:48:22;;;;;;;39.25;24.52;;;11.30;99.90;;;;;;5007024;28;20057;-91
2021/10/26 04:50:48;;;;;;;36.22;22.67;;;11.30;99.90;;;;;;5047700;28;20406;-89
2021/10/26 04:53:13;;;;;;;43.25;25.27;;;11.30;99.90;;;;;;5048081;28;20037;-92
2021/10/26 04:55:47;;;;;;;38.08;22.92;;;11.20;99.90;;;;;;5031748;28;20037;-89
2021/10/26 04:58:13;;;;;;;41.97;25.55;;;11.30;99.90;;;;;;5047049;28;20060;-89
2021/10/26 05:00:42;;;;;;;37.38;22.58;;;11.30;99.90;;;;;;5031132;28;20093;-88
2021/10/26 05:03:08;;;;;;;37.15;22.58;;;11.30;99.90;;;;;;5030987;28;20048;-89
2021/10/26 05:05:35;;;;;;;33.65;21.52;;;11.30;99.90;;;;;;5030864;28;20033;-87
2021/10/26 05:08:02;;;;;;;39.13;22.08;;;11.30;99.90;;;;;;5031036;28;20028;-88
2021/10/26 05:10:27;;;;;;;39.75;22.25;;;11.30;99.90;;;;;;5047339;28;20060;-88
2021/10/26 05:12:53;;;;;;;41.50;22.55;;;11.30;99.90;;;;;;5047296;28;20029;-89
2021/10/26 05:15:42;;;;;;;37.88;22.08;;;11.20;99.90;;;;;;5047283;28;20048;-89
2021/10/26 05:18:50;;;;;;;36.83;18.45;;;11.20;99.90;;;;;;4979691;28;20034;-86
2021/10/26 05:21:35;;;;;;;40.17;23.25;;;11.20;99.90;;;;;;4977877;28;20082;-87
2021/10/26 05:24:19;;;;;;;38.67;21.73;;;11.20;99.90;;;;;;5022608;28;20076;-86
2021/10/26 05:26:52;;;;;;;48.30;24.92;;;11.20;99.90;;;;;;5043959;28;20021;-89
2021/10/26 05:29:18;;;;;;;39.95;20.88;;;11.10;99.90;;;;;;5033693;28;20032;-87
2021/10/26 05:31:44;;;;;;;42.67;22.50;;;11.10;99.90;;;;;;5033474;28;20033;-89
2021/10/26 05:34:10;;;;;;;41.35;24.73;;;11.10;99.90;;;;;;5033407;28;20028;-88
2021/10/26 05:36:37;;;;;;;41.00;21.20;;;11.10;99.90;;;;;;5033798;28;20024;-86
2021/10/26 05:39:06;;;;;;;30.77;17.17;;;11.10;99.90;;;;;;5033744;28;20028;-86
2021/10/26 05:41:32;;;;;;;39.83;22.33;;;11.10;99.90;;;;;;5041326;28;20029;-88
2021/10/26 05:43:59;;;;;;;43.03;22.60;;;11.10;99.90;;;;;;5023564;28;20090;-87
2021/10/26 05:46:25;;;;;;;50.67;25.67;;;11.10;99.90;;;;;;5056056;28;20037;-87
2021/10/26 05:48:50;;;;;;;38.40;21.90;;;11.10;99.90;;;;;;5021970;28;20037;-86
2021/10/26 05:51:17;;;;;;;33.60;18.50;;;11.10;99.90;;;;;;5024306;28;20029;-86
2021/10/26 05:53:42;;;;;;;37.70;19.77;;;11.10;99.90;;;;;;5026377;28;20097;-85
2021/10/26 05:56:08;;;;;;;38.72;20.67;;;11.10;99.90;;;;;;5021999;28;20052;-85
2021/10/26 05:58:34;;;;;;;43.72;23.70;;;11.10;99.90;;;;;;5024342;28;20032;-85
2021/10/26 06:00:59;;;;;;;43.38;22.88;;;11.10;99.90;;;;;;5041534;28;20016;-85
2021/10/26 06:03:25;;;;;;;51.45;25.77;;;11.10;99.90;;;;;;5022667;28;20454;-85
2021/10/26 06:05:51;;;;;;;44.13;22.63;;;11.00;99.90;;;;;;5037709;28;20028;-85
2021/10/26 06:08:17;;;;;;;44.33;22.77;;;11.00;99.90;;;;;;5031764;28;20109;-85
2021/10/26 06:10:46;;;;;;;39.58;21.23;;;11.00;99.90;;;;;;5056322;28;20370;-89
2021/10/26 06:13:15;;;;;;;31.88;17.48;;;11.00;99.90;;;;;;5055719;28;20029;-88
2021/10/26 06:15:42;;;;;;;30.40;16.73;;;11.00;99.90;;;;;;5021536;28;20045;-86
2021/10/26 06:18:07;;;;;;;26.40;15.55;;;11.00;99.90;;;;;;5036607;28;20030;-89
2021/10/26 06:20:41;;;;;;;32.67;18.60;;;10.90;99.90;;;;;;5026724;28;20036;-86
2021/10/26 06:23:07;;;;;;;33.50;16.80;;;11.00;99.90;;;;;;5043241;28;20082;-85
2021/10/26 06:25:33;;;;;;;43.25;23.48;;;11.00;99.90;;;;;;5039882;28;20029;-83
2021/10/26 06:28:21;;;;;;;42.65;23.98;;;11.00;99.90;;;;;;5042876;28;20029;-86
2021/10/26 06:30:48;;;;;;;36.63;22.48;;;11.10;99.90;;;;;;5028027;28;20039;-83
2021/10/26 06:33:16;;;;;;;38.00;19.50;;;11.10;99.90;;;;;;5039328;28;20512;-83
2021/10/26 06:35:45;;;;;;;43.17;21.27;;;11.00;99.90;;;;;;5025827;28;20025;-82
2021/10/26 06:38:12;;;;;;;38.47;20.10;;;11.00;99.90;;;;;;5038458;28;20028;-81
2021/10/26 06:40:41;;;;;;;38.05;21.13;;;11.10;99.90;;;;;;5042925;28;20063;-84
2021/10/26 06:43:25;;;;;;;35.17;18.33;;;11.00;99.90;;;;;;5042138;28;20040;-82
2021/10/26 06:46:20;;;;;;;33.90;18.73;;;11.10;99.90;;;;;;5040183;28;20025;-83
2021/10/26 06:49:04;;;;;;;30.27;16.85;;;11.00;99.90;;;;;;5041989;28;20052;-83
2021/10/26 06:51:48;;;;;;;40.50;20.35;;;11.10;99.90;;;;;;5038535;28;20032;-83
2021/10/26 06:54:52;;;;;;;29.42;16.65;;;11.10;99.90;;;;;;5014936;28;20053;-83
2021/10/26 06:57:53;;;;;;;31.55;16.83;;;11.10;99.90;;;;;;4988037;28;20543;-83
2021/10/26 07:00:38;;;;;;;33.75;17.98;;;11.10;99.90;;;;;;5047919;28;20123;-83
2021/10/26 07:03:40;;;;;;;35.90;19.30;;;11.10;99.90;;;;;;5052647;28;20060;-84
2021/10/26 07:06:18;;;;;;;36.92;19.80;;;11.10;99.90;;;;;;5051149;28;20032;-84
2021/10/26 07:08:59;;;;;;;26.92;14.63;;;11.10;99.90;;;;;;5053523;28;20073;-84
2021/10/26 07:11:27;;;;;;;41.75;19.35;;;11.10;99.90;;;;;;5029203;28;20033;-85
2021/10/26 07:13:55;;;;;;;37.22;20.42;;;11.20;99.90;;;;;;5045744;28;20106;-84
2021/10/26 07:16:21;;;;;;;33.70;16.50;;;11.20;99.90;;;;;;5022680;28;20025;-84
2021/10/26 07:18:49;;;;;;;30.67;15.68;;;11.20;99.90;;;;;;5023785;28;20040;-84
2021/10/26 07:21:15;;;;;;;30.13;15.02;;;11.20;99.90;;;;;;5021678;28;20026;-84
2021/10/26 07:24:00;;;;;;;41.00;19.83;;;11.20;99.90;;;;;;5037896;28;20830;-84
2021/10/26 07:26:42;;;;;;;35.25;17.85;;;11.30;99.90;;;;;;5025187;28;20493;-84
2021/10/26 07:29:08;;;;;;;34.35;17.27;;;11.30;99.90;;;;;;5020880;28;20029;-84
2021/10/26 07:31:35;;;;;;;27.88;15.20;;;11.30;99.90;;;;;;5033945;28;20623;-83
2021/10/26 07:34:02;;;;;;;34.55;17.15;;;11.30;99.90;;;;;;5039918;28;20014;-83
2021/10/26 07:36:41;;;;;;;23.50;13.30;;;11.30;99.90;;;;;;5018767;28;20026;-82
2021/10/26 07:39:19;;;;;;;26.75;15.75;;;11.40;99.90;;;;;;5036316;28;20025;-83
2021/10/26 07:41:45;;;;;;;33.92;18.30;;;11.30;99.90;;;;;;5026190;28;20030;-82
2021/10/26 07:44:30;;;;;;;32.95;16.58;;;11.30;99.90;;;;;;5041782;28;20535;-82
2021/10/26 07:47:02;;;;;;;37.33;18.08;;;11.40;99.90;;;;;;5028745;28;20033;-82
2021/10/26 07:49:30;;;;;;;40.45;20.58;;;11.40;99.90;;;;;;5043354;28;20030;-84
2021/10/26 07:51:57;;;;;;;41.33;20.55;;;11.30;99.90;;;;;;5055576;28;20103;-81
2021/10/26 07:54:23;;;;;;;33.92;19.73;;;11.30;99.90;;;;;;5037978;28;20063;-84
2021/10/26 07:56:49;;;;;;;30.67;16.88;;;11.40;99.90;;;;;;5028541;28;20025;-83
2021/10/26 07:59:15;;;;;;;32.50;16.95;;;11.50;99.90;;;;;;5036883;28;20038;-83
2021/10/26 08:01:44;;;;;;;31.80;17.08;;;11.60;99.90;;;;;;5042505;28;20028;-83
2021/10/26 08:04:29;;;;;;;28.55;15.38;;;11.50;99.90;;;;;;5039973;28;20048;-84
2021/10/26 08:07:12;;;;;;;30.95;16.52;;;11.60;99.90;;;;;;5023692;28;20025;-84
2021/10/26 08:09:38;;;;;;;30.52;15.95;;;11.70;99.90;;;;;;5041909;28;20032;-84
2021/10/26 08:12:05;;;;;;;30.15;15.10;;;11.80;99.90;;;;;;5025442;28;20021;-83
2021/10/26 08:14:31;;;;;;;33.60;17.58;;;11.90;99.90;;;;;;5028980;28;20055;-84
2021/10/26 08:16:57;;;;;;;33.05;15.55;;;11.80;99.90;;;;;;5037505;28;20021;-84
2021/10/26 08:19:23;;;;;;;30.75;14.90;;;11.70;99.90;;;;;;5019746;28;20032;-83
2021/10/26 08:21:50;;;;;;;33.25;15.77;;;11.80;99.90;;;;;;5022288;28;20025;-83
2021/10/26 08:24:19;;;;;;;30.77;16.65;;;11.80;99.90;;;;;;5032740;28;20061;-84
2021/10/26 08:26:47;;;;;;;30.20;15.90;;;11.70;99.90;;;;;;5037942;28;20036;-84
2021/10/26 08:29:18;;;;;;;27.40;13.73;;;11.80;99.90;;;;;;5027850;28;20378;-85
2021/10/26 08:37:12;;;;;;;23.48;12.57;;;11.80;99.90;;;;;;5042462;28;20025;-84
2021/10/26 08:39:43;;;;;;;27.85;13.88;;;12.00;99.90;;;;;;5030804;28;20036;-83
2021/10/26 08:42:18;;;;;;;21.25;12.30;;;12.00;99.90;;;;;;5038657;28;20028;-83
2021/10/26 08:44:44;;;;;;;28.65;12.82;;;11.90;99.90;;;;;;5046497;28;20100;-84
2021/10/26 08:47:11;;;;;;;33.10;14.18;;;11.90;99.90;;;;;;5040897;28;20045;-84
2021/10/26 08:49:46;;;;;;;24.45;11.73;;;12.00;99.90;;;;;;5026759;28;20478;-83
2021/10/26 08:52:36;;;;;;;26.67;13.57;;;12.00;99.90;;;;;;5043206;28;20045;-84
2021/10/26 08:55:22;;;;;;;23.60;14.50;;;11.90;99.90;;;;;;5040475;28;20037;-84
2021/10/26 08:58:15;;;;;;;24.05;12.70;;;12.00;99.90;;;;;;5046436;28;20036;-85
2021/10/26 09:00:49;;;;;;;25.17;13.75;;;12.00;99.90;;;;;;5027806;28;20025;-85
2021/10/26 09:03:21;;;;;;;29.38;13.77;;;12.10;99.90;;;;;;5022401;28;20039;-83
2021/10/26 09:05:51;;;;;;;35.25;17.02;;;12.20;99.90;;;;;;5043581;28;20040;-85
2021/10/26 09:08:27;;;;;;;29.13;14.15;;;12.10;99.90;;;;;;5046129;28;20060;-84
2021/10/26 09:11:02;;;;;;;30.15;15.40;;;12.20;99.90;;;;;;5040567;28;20026;-84
2021/10/26 09:16:51;;;;;;;28.45;15.50;;;12.40;99.90;;;;;;5053651;28;20059;-84
2021/10/26 09:19:42;;;;;;;31.40;17.98;;;12.70;99.90;;;;;;5042207;28;20044;-83
2021/10/26 09:22:15;;;;;;;35.17;20.15;;;12.60;99.90;;;;;;5045408;28;20033;-84
2021/10/26 09:24:54;;;;;;;36.50;20.27;;;12.50;99.90;;;;;;5039125;28;20474;-84
2021/10/26 09:27:23;;;;;;;40.78;22.17;;;12.60;99.90;;;;;;5057010;28;20032;-84
2021/10/26 09:29:51;;;;;;;37.40;21.00;;;12.50;99.90;;;;;;5022810;28;20033;-84
2021/10/26 09:32:20;;;;;;;38.55;21.38;;;12.40;99.90;;;;;;5055767;28;20083;-84
2021/10/26 09:34:55;;;;;;;37.83;20.17;;;12.40;99.90;;;;;;5023953;28;20051;-84
2021/10/26 09:37:22;;;;;;;41.25;21.80;;;12.60;99.90;;;;;;5022690;28;20037;-84
2021/10/26 09:39:57;;;;;;;33.28;19.38;;;12.80;99.90;;;;;;5021748;28;20037;-85
2021/10/26 09:42:44;;;;;;;33.92;20.83;;;12.90;99.90;;;;;;5025641;28;20097;-84
2021/10/26 09:48:58;;;;;;;27.10;15.38;;;12.80;99.90;;;;;;4997618;28;20049;-84
2021/10/26 09:51:24;;;;;;;24.98;13.20;;;13.20;99.90;;;;;;4987347;28;20442;-84
2021/10/26 09:53:57;;;;;;;23.08;13.10;;;13.00;99.90;;;;;;4961663;28;20035;-82
2021/10/26 09:56:23;;;;;;;20.80;10.32;;;13.10;99.90;;;;;;4979888;28;20034;-84
2021/10/26 09:58:51;;;;;;;20.55;10.88;;;12.70;99.90;;;;;;4966826;28;20035;-84
2021/10/26 10:01:27;;;;;;;21.75;11.85;;;12.80;99.90;;;;;;4982005;28;20035;-83
2021/10/26 10:04:03;;;;;;;23.58;11.38;;;12.80;99.90;;;;;;4984204;28;20094;-82
2021/10/26 10:06:47;;;;;;;17.35;9.93;;;12.70;99.90;;;;;;4995578;28;20040;-83
2021/10/26 10:09:25;;;;;;;16.92;9.40;;;12.80;99.90;;;;;;4999426;28;20034;-83
2021/10/26 10:12:07;;;;;;;18.02;10.48;;;12.70;99.90;;;;;;4977887;28;20047;-84
2021/10/26 10:14:40;;;;;;;17.17;9.65;;;12.80;99.90;;;;;;4979883;28;20035;-83
2021/10/26 10:17:12;;;;;;;18.45;9.93;;;12.90;99.90;;;;;;4995534;28;20034;-85
2021/10/26 10:19:40;;;;;;;15.00;9.05;;;13.10;99.90;;;;;;4993423;28;20039;-83
2021/10/26 10:22:07;;;;;;;19.88;10.55;;;13.10;99.90;;;;;;4967040;28;20102;-85
2021/10/26 10:24:39;;;;;;;17.95;9.77;;;13.10;99.90;;;;;;4997190;28;20040;-84
2021/10/26 10:27:07;;;;;;;17.83;9.48;;;13.10;99.90;;;;;;5043255;28;20040;-84
2021/10/26 10:29:38;;;;;;;15.35;9.18;;;13.10;99.90;;;;;;5038374;28;20021;-84
2021/10/26 10:32:08;;;;;;;22.48;10.65;;;13.20;99.90;;;;;;5056327;28;20033;-85
2021/10/26 10:34:35;;;;;;;19.00;10.23;;;13.10;99.90;;;;;;5027947;28;20032;-84
2021/10/26 10:37:04;;;;;;;18.77;10.88;;;13.10;99.90;;;;;;5028438;28;20313;-85
2021/10/26 10:39:34;;;;;;;22.30;13.20;;;13.00;99.90;;;;;;5029462;28;20032;-89
2021/10/26 10:42:14;;;;;;;18.15;10.40;;;12.90;99.90;;;;;;5053921;28;20299;-84
2021/10/26 10:44:41;;;;;;;18.55;11.63;;;13.00;99.90;;;;;;5027266;28;20034;-86
2021/10/26 10:47:11;;;;;;;23.38;12.52;;;13.00;99.90;;;;;;5027386;28;20036;-85
2021/10/26 10:49:37;;;;;;;22.40;12.02;;;13.00;99.90;;;;;;5056981;28;20072;-85
2021/10/26 10:52:08;;;;;;;19.88;11.57;;;13.00;99.90;;;;;;5042956;28;20551;-84
2021/10/26 10:54:37;;;;;;;17.58;10.65;;;13.10;99.90;;;;;;5021775;28;20059;-84
2021/10/26 10:57:24;;;;;;;22.40;11.43;;;13.00;99.90;;;;;;5038423;28;20485;-84
2021/10/26 11:00:16;;;;;;;19.02;10.35;;;12.80;99.90;;;;;;5037986;28;20563;-86
2021/10/26 11:02:42;;;;;;;14.15;8.63;;;13.10;99.90;;;;;;5039448;28;20029;-83
2021/10/26 11:05:30;;;;;;;16.63;9.25;;;13.30;99.90;;;;;;5037922;28;20041;-84
2021/10/26 11:07:58;;;;;;;20.85;10.32;;;13.20;99.90;;;;;;5023072;28;20026;-85
2021/10/26 11:10:44;;;;;;;17.73;9.80;;;13.00;99.90;;;;;;5056929;28;20101;-86
2021/10/26 11:13:22;;;;;;;24.98;10.25;;;13.20;99.90;;;;;;5005361;28;21994;-85
2021/10/26 11:15:50;;;;;;;22.05;10.30;;;13.40;99.90;;;;;;5038833;28;20436;-85
2021/10/26 11:18:35;;;;;;;17.92;10.65;;;13.20;99.90;;;;;;5053517;28;20048;-86
2021/10/26 11:21:20;;;;;;;21.45;11.57;;;13.20;99.90;;;;;;5030764;28;20025;-85
2021/10/26 11:23:46;;;;;;;20.95;10.48;;;13.20;99.90;;;;;;5029194;28;20036;-86
2021/10/26 11:26:30;;;;;;;20.20;11.45;;;13.10;99.90;;;;;;5023091;28;20024;-86
2021/10/26 11:28:58;;;;;;;19.75;9.90;;;13.20;99.90;;;;;;5036300;28;20025;-84
2021/10/26 11:31:25;;;;;;;23.67;12.65;;;13.40;99.90;;;;;;5018650;28;20063;-84
2021/10/26 11:33:58;;;;;;;20.10;10.52;;;13.20;99.90;;;;;;5017612;28;20044;-85
2021/10/26 11:36:33;;;;;;;19.33;10.63;;;13.30;99.90;;;;;;5022458;28;20033;-85
2021/10/26 11:39:29;;;;;;;23.08;12.45;;;13.30;99.90;;;;;;5034102;28;20504;-85
2021/10/26 11:41:58;;;;;;;19.27;11.63;;;13.30;99.90;;;;;;5034197;28;20056;-86
2021/10/26 11:44:24;;;;;;;20.40;11.93;;;13.30;99.90;;;;;;5022625;28;20191;-85
2021/10/26 11:46:51;;;;;;;21.02;12.00;;;13.50;99.90;;;;;;5039909;28;20473;-85
2021/10/26 11:49:21;;;;;;;20.80;11.63;;;13.70;99.90;;;;;;5004377;28;20058;-87
2021/10/26 11:51:58;;;;;;;15.32;10.50;;;14.00;99.90;;;;;;5033178;28;20025;-86
2021/10/26 11:54:39;;;;;;;19.17;11.60;;;14.10;99.90;;;;;;5038446;28;20120;-85
2021/10/26 11:57:06;;;;;;;20.70;10.32;;;14.10;99.90;;;;;;5025215;28;20049;-84
2021/10/26 11:59:41;;;;;;;17.60;10.07;;;14.10;99.90;;;;;;5016912;28;20382;-83
2021/10/26 12:02:21;;;;;;;16.63;11.07;;;14.10;99.90;;;;;;5022891;28;20051;-86
2021/10/26 12:04:53;;;;;;;20.57;11.97;;;14.20;99.90;;;;;;5030329;28;20044;-85
2021/10/26 12:07:22;;;;;;;19.80;9.82;;;14.30;99.90;;;;;;5058264;28;20120;-85
2021/10/26 12:09:49;;;;;;;16.95;9.50;;;14.50;99.90;;;;;;5039654;28;20037;-86
2021/10/26 12:12:30;;;;;;;14.07;9.57;;;14.30;99.90;;;;;;5023677;28;20056;-84
2021/10/26 12:14:58;;;;;;;15.02;8.40;;;14.20;99.90;;;;;;5026464;28;20036;-84
2021/10/26 12:17:46;;;;;;;16.90;8.15;;;14.10;99.90;;;;;;5057499;28;20055;-84
2021/10/26 12:20:20;;;;;;;13.90;9.25;;;14.20;99.90;;;;;;5057027;28;20036;-83
2021/10/26 12:22:59;;;;;;;16.60;8.80;;;14.20;99.90;;;;;;5042723;28;20028;-86
2021/10/26 12:25:29;;;;;;;10.63;6.93;;;14.10;99.90;;;;;;5061693;28;20041;-84
2021/10/26 12:27:58;;;;;;;10.48;6.50;;;14.00;99.90;;;;;;5028998;28;20017;-85
2021/10/26 12:30:31;;;;;;;12.30;5.60;;;14.10;99.90;;;;;;5061106;28;20033;-83
2021/10/26 12:33:23;;;;;;;12.50;7.00;;;14.10;99.90;;;;;;5023211;28;20032;-84
2021/10/26 12:35:56;;;;;;;12.20;5.68;;;14.10;99.90;;;;;;5032024;28;20046;-85
2021/10/26 12:38:43;;;;;;;13.18;6.18;;;14.20;99.90;;;;;;5037388;28;20021;-84
2021/10/26 12:41:17;;;;;;;11.77;5.43;;;14.10;99.90;;;;;;5041115;28;20025;-84
2021/10/26 12:43:57;;;;;;;12.00;5.75;;;14.10;99.90;;;;;;5025267;28;20176;-85
2021/10/26 12:46:25;;;;;;;8.77;4.50;;;14.20;99.90;;;;;;5039424;28;20065;-85
2021/10/26 12:49:02;;;;;;;10.75;3.65;;;14.40;99.90;;;;;;5020440;28;20056;-84
2021/10/26 12:51:28;;;;;;;9.48;3.80;;;14.60;99.90;;;;;;5057464;28;20037;-86
2021/10/26 12:53:55;;;;;;;7.47;2.80;;;14.50;99.90;;;;;;5040828;28;20508;-84
2021/10/26 12:56:26;;;;;;;6.32;2.35;;;14.40;99.90;;;;;;5027943;28;20029;-83
2021/10/26 12:58:51;;;;;;;7.35;2.40;;;14.50;99.90;;;;;;5032279;28;20038;-82
2021/10/26 13:01:31;;;;;;;4.63;2.30;;;14.60;99.90;;;;;;5051707;28;20047;-83